Time;durP1;ratioP1;P1;durP2;ratioP2;P2;SDS_P1;SDS_P2;PMS_P1;PMS_P2;Temp;Humidity;BMP_temperature;BMP_pressure;BME280_temperature;BME280_humidity;BME280_pressure;Samples;Min_cycle;Max_cycle;Signal;HPM_P1;HPM_P2
2022/03/18 00:01:07;;;;;;;9.40;2.97;;;10.60;88.50;;;;;;6242958;28;20050;-80
2022/03/18 00:04:08;;;;;;;8.43;3.15;;;10.50;88.70;;;;;;6239489;28;20589;-80
2022/03/18 00:07:11;;;;;;;16.80;2.92;;;10.50;88.40;;;;;;6231501;28;20147;-80
2022/03/18 00:10:15;;;;;;;7.65;2.20;;;10.50;87.40;;;;;;6229619;28;20124;-79
2022/03/18 00:13:16;;;;;;;13.05;2.80;;;10.40;87.50;;;;;;6229443;28;20045;-80
2022/03/18 00:16:18;;;;;;;3.47;1.65;;;10.40;87.10;;;;;;6229933;28;20053;-79
2022/03/18 00:19:20;;;;;;;8.20;2.92;;;10.40;86.50;;;;;;6228499;28;20049;-81
2022/03/18 00:22:23;;;;;;;4.32;2.22;;;10.30;88.00;;;;;;6239334;28;20042;-80
2022/03/18 00:25:25;;;;;;;4.47;2.45;;;10.30;88.10;;;;;;6238686;28;20070;-79
2022/03/18 00:28:27;;;;;;;13.00;3.63;;;10.30;87.20;;;;;;6241290;28;20050;-80
2022/03/18 00:31:30;;;;;;;5.40;2.65;;;10.30;87.50;;;;;;6239827;28;20053;-80
2022/03/18 00:34:32;;;;;;;9.00;3.40;;;10.20;87.10;;;;;;6240525;28;20054;-81
2022/03/18 00:37:36;;;;;;;6.15;2.88;;;10.20;89.30;;;;;;6240917;28;20576;-81
2022/03/18 00:40:38;;;;;;;7.45;3.13;;;10.30;87.60;;;;;;6240849;28;20112;-79
2022/03/18 00:43:40;;;;;;;11.02;3.92;;;10.30;86.90;;;;;;6236191;28;20061;-78
2022/03/18 00:46:42;;;;;;;6.90;3.58;;;10.30;86.40;;;;;;6240935;28;20069;-80
2022/03/18 00:53:05;;;;;;;12.25;3.95;;;10.20;86.70;;;;;;6240130;28;20041;-80
2022/03/18 00:56:07;;;;;;;8.55;2.72;;;10.20;88.90;;;;;;6239420;28;20042;-81
2022/03/18 00:59:10;;;;;;;11.57;2.97;;;10.20;87.20;;;;;;6240124;28;20049;-80
2022/03/18 01:02:11;;;;;;;7.68;3.13;;;10.20;86.60;;;;;;6240511;28;20105;-81
2022/03/18 01:05:13;;;;;;;6.32;2.85;;;10.20;87.50;;;;;;6239169;28;20054;-80
2022/03/18 01:08:16;;;;;;;6.63;3.00;;;10.10;87.20;;;;;;6239442;28;20054;-79
2022/03/18 01:11:18;;;;;;;10.73;3.30;;;10.20;86.60;;;;;;6212373;28;20129;-81
2022/03/18 01:14:20;;;;;;;8.82;2.58;;;10.00;87.40;;;;;;6212965;28;20161;-81
2022/03/18 01:17:22;;;;;;;10.93;2.88;;;10.10;87.10;;;;;;6212116;28;20042;-80
2022/03/18 01:20:23;;;;;;;11.70;3.03;;;10.00;86.30;;;;;;6212801;28;20054;-80
2022/03/18 01:23:27;;;;;;;7.38;2.53;;;10.00;87.00;;;;;;6212008;28;20129;-80
2022/03/18 01:26:29;;;;;;;8.20;2.25;;;10.10;86.50;;;;;;6211284;28;20129;-79
2022/03/18 01:29:31;;;;;;;9.95;3.17;;;10.00;85.90;;;;;;6204536;28;20057;-79
2022/03/18 01:32:33;;;;;;;9.82;2.72;;;9.90;86.60;;;;;;6199896;28;20052;-79
2022/03/18 01:35:37;;;;;;;6.80;2.92;;;9.90;86.30;;;;;;6200746;28;20050;-80
2022/03/18 01:38:40;;;;;;;5.88;3.17;;;9.90;86.90;;;;;;6201856;28;20050;-79
2022/03/18 01:41:42;;;;;;;15.05;4.28;;;10.00;86.40;;;;;;6201314;28;20057;-79
2022/03/18 01:44:47;;;;;;;16.10;3.60;;;10.00;87.50;;;;;;6201722;28;20565;-79
2022/03/18 01:47:48;;;;;;;7.53;2.63;;;10.00;87.30;;;;;;6201716;28;20639;-79
2022/03/18 01:50:50;;;;;;;7.65;2.92;;;10.10;87.30;;;;;;6203781;28;20062;-80
2022/03/18 01:57:10;;;;;;;11.90;2.80;;;10.00;85.60;;;;;;6201069;28;20132;-79
2022/03/18 02:00:13;;;;;;;13.48;3.65;;;9.90;85.00;;;;;;6201690;28;20050;-79
2022/03/18 02:03:15;;;;;;;6.55;3.03;;;9.80;86.20;;;;;;6202748;28;20128;-79
2022/03/18 02:06:16;;;;;;;8.35;3.38;;;9.80;86.30;;;;;;6208995;28;20046;-80
2022/03/18 02:09:20;;;;;;;12.20;3.25;;;9.80;88.00;;;;;;6213067;28;20050;-80
2022/03/18 02:12:22;;;;;;;8.00;2.67;;;9.80;86.10;;;;;;6211411;28;20098;-80
2022/03/18 02:15:25;;;;;;;13.88;3.72;;;9.80;87.30;;;;;;6212783;28;20121;-81
2022/03/18 02:18:27;;;;;;;12.57;3.05;;;9.80;86.80;;;;;;6211403;28;20038;-80
2022/03/18 02:21:30;;;;;;;16.85;2.72;;;9.80;87.10;;;;;;6212376;28;20093;-79
2022/03/18 02:24:33;;;;;;;3.72;2.67;;;9.80;86.90;;;;;;6210585;28;20058;-80
2022/03/18 02:27:35;;;;;;;10.05;3.50;;;9.80;86.10;;;;;;6209904;28;20046;-80
2022/03/18 02:30:37;;;;;;;9.10;2.63;;;9.80;87.20;;;;;;6212071;28;20089;-80
2022/03/18 02:33:39;;;;;;;8.93;2.97;;;9.80;86.00;;;;;;6241153;22;20139;-81
2022/03/18 02:36:41;;;;;;;8.10;2.90;;;9.70;86.30;;;;;;6231169;28;20050;-81
2022/03/18 02:39:44;;;;;;;8.02;2.67;;;9.70;86.20;;;;;;6231156;28;20108;-80
2022/03/18 02:42:46;;;;;;;7.10;2.70;;;9.70;85.80;;;;;;6233114;28;20053;-81
2022/03/18 02:45:48;;;;;;;9.80;3.10;;;9.70;87.50;;;;;;6229942;28;20060;-82
2022/03/18 02:48:49;;;;;;;6.35;2.30;;;9.80;89.50;;;;;;6228108;28;20056;-81
2022/03/18 02:51:52;;;;;;;7.35;2.95;;;9.80;89.10;;;;;;6231482;28;20046;-80
2022/03/18 02:54:55;;;;;;;8.77;3.10;;;9.80;86.80;;;;;;6230674;28;20538;-80
2022/03/18 02:57:56;;;;;;;8.15;2.67;;;9.70;86.70;;;;;;6232888;28;20061;-81
2022/03/18 03:00:58;;;;;;;5.78;2.75;;;9.70;86.20;;;;;;6230991;28;20125;-81
2022/03/18 03:04:00;;;;;;;8.80;2.75;;;9.70;87.10;;;;;;6232150;28;20052;-80
2022/03/18 03:10:23;;;;;;;7.28;2.65;;;9.70;86.30;;;;;;6232022;28;20046;-81
2022/03/18 03:13:25;;;;;;;9.35;2.72;;;9.60;87.00;;;;;;6233288;28;20046;-80
2022/03/18 03:16:26;;;;;;;9.45;2.85;;;9.60;87.00;;;;;;6231414;28;20129;-80
2022/03/18 03:19:28;;;;;;;12.00;2.95;;;9.60;87.30;;;;;;6233390;28;20050;-80
2022/03/18 03:22:30;;;;;;;13.40;3.00;;;9.70;87.90;;;;;;6231654;28;20054;-81
2022/03/18 03:25:34;;;;;;;11.27;4.32;;;9.60;87.50;;;;;;6233629;28;20650;-81
2022/03/18 03:28:36;;;;;;;6.03;2.70;;;9.60;87.20;;;;;;6232659;28;20551;-80
2022/03/18 03:31:38;;;;;;;7.38;2.35;;;9.70;85.30;;;;;;6231491;28;20050;-81
2022/03/18 03:34:39;;;;;;;9.20;2.92;;;9.70;86.90;;;;;;6232388;28;20054;-80
2022/03/18 03:37:41;;;;;;;11.48;3.50;;;9.70;87.60;;;;;;6231970;28;20053;-80
2022/03/18 03:40:44;;;;;;;4.55;2.22;;;9.70;88.60;;;;;;6234113;28;20291;-80
2022/03/18 03:43:46;;;;;;;5.63;3.03;;;9.80;88.00;;;;;;6234013;28;20137;-80
2022/03/18 03:46:48;;;;;;;7.35;3.50;;;9.80;85.80;;;;;;6234930;28;20430;-80
2022/03/18 03:49:49;;;;;;;8.15;2.75;;;9.80;86.60;;;;;;6234259;28;20069;-80
2022/03/18 03:52:51;;;;;;;10.88;3.03;;;9.70;85.80;;;;;;6232060;28;20092;-81
2022/03/18 03:55:54;;;;;;;10.50;2.80;;;9.80;88.30;;;;;;6242688;28;20132;-80
2022/03/18 03:58:56;;;;;;;9.75;2.88;;;9.80;87.00;;;;;;6241212;28;20489;-80
2022/03/18 04:01:58;;;;;;;5.72;2.00;;;9.80;86.80;;;;;;6241220;28;20466;-80
2022/03/18 04:05:00;;;;;;;10.18;2.38;;;9.80;87.70;;;;;;6239692;28;20519;-81
2022/03/18 04:08:03;;;;;;;16.88;4.18;;;9.80;86.90;;;;;;6241213;28;20042;-80
2022/03/18 04:11:06;;;;;;;10.52;2.33;;;9.70;87.30;;;;;;6242417;28;20081;-81
2022/03/18 04:14:08;;;;;;;10.00;2.67;;;9.80;87.00;;;;;;6241363;28;20114;-81
2022/03/18 04:17:10;;;;;;;11.80;3.20;;;9.80;87.60;;;;;;6241703;28;20049;-80
2022/03/18 04:20:13;;;;;;;9.43;3.10;;;9.80;88.10;;;;;;6242525;28;20133;-81
2022/03/18 04:23:15;;;;;;;12.82;2.63;;;9.80;87.70;;;;;;6242940;28;20136;-80
2022/03/18 04:26:18;;;;;;;13.05;2.65;;;9.80;86.80;;;;;;6242427;28;20130;-81
2022/03/18 04:29:20;;;;;;;10.05;2.90;;;9.70;86.60;;;;;;6240894;28;20073;-81
2022/03/18 04:32:21;;;;;;;9.77;2.88;;;9.70;85.90;;;;;;6240655;28;20046;-80
2022/03/18 04:35:24;;;;;;;8.35;2.75;;;9.70;87.30;;;;;;6238290;28;20046;-81
2022/03/18 04:38:25;;;;;;;8.93;2.28;;;9.60;86.00;;;;;;6242327;28;20045;-80
2022/03/18 04:41:29;;;;;;;9.80;2.35;;;9.60;86.70;;;;;;6239300;28;20052;-81
2022/03/18 04:44:30;;;;;;;11.38;3.00;;;9.50;85.60;;;;;;6242845;28;20065;-81
2022/03/18 04:47:33;;;;;;;12.88;3.08;;;9.50;86.60;;;;;;6242656;28;20131;-81
2022/03/18 04:50:35;;;;;;;10.07;4.60;;;9.50;86.90;;;;;;6240475;28;20057;-80
2022/03/18 04:53:36;;;;;;;9.25;2.90;;;9.50;87.60;;;;;;6241445;28;20110;-81
2022/03/18 04:59:58;;;;;;;6.65;2.90;;;9.60;86.40;;;;;;6235372;28;20046;-81
2022/03/18 05:03:00;;;;;;;16.75;3.05;;;9.60;86.80;;;;;;6241651;28;20123;-81
2022/03/18 05:06:02;;;;;;;10.15;3.03;;;9.60;88.00;;;;;;6233589;28;20076;-82
2022/03/18 05:09:04;;;;;;;9.20;2.60;;;9.50;86.60;;;;;;6232369;28;20125;-81
2022/03/18 05:12:09;;;;;;;7.80;2.00;;;9.50;86.20;;;;;;6232201;28;20120;-82
2022/03/18 05:15:11;;;;;;;10.60;2.60;;;9.50;86.50;;;;;;6233028;28;20046;-81
2022/03/18 05:18:13;;;;;;;7.63;2.65;;;9.50;86.90;;;;;;6231562;28;20403;-81
2022/03/18 05:21:15;;;;;;;9.50;2.60;;;9.50;86.10;;;;;;6230911;28;20053;-81
2022/03/18 05:24:17;;;;;;;8.55;3.40;;;9.50;87.20;;;;;;6230181;28;20491;-80
2022/03/18 05:27:20;;;;;;;15.18;3.90;;;9.50;88.60;;;;;;6229731;28;20054;-81
2022/03/18 05:30:23;;;;;;;14.20;5.22;;;9.50;87.40;;;;;;6229244;28;20038;-80
2022/03/18 05:33:25;;;;;;;10.93;3.00;;;9.60;88.40;;;;;;6230625;28;20083;-81
2022/03/18 05:36:27;;;;;;;8.52;3.40;;;9.60;88.60;;;;;;6229574;28;20068;-80
2022/03/18 05:39:29;;;;;;;7.30;2.63;;;9.60;87.40;;;;;;6229286;28;20050;-80
2022/03/18 05:42:32;;;;;;;14.02;3.95;;;9.50;85.20;;;;;;6228976;28;20054;-80
2022/03/18 05:45:34;;;;;;;12.55;3.90;;;9.40;86.20;;;;;;6227825;28;20108;-80
2022/03/18 05:48:35;;;;;;;6.90;2.60;;;9.40;86.30;;;;;;6230011;28;20057;-80
2022/03/18 05:51:37;;;;;;;9.32;3.28;;;9.40;86.20;;;;;;6228818;28;20076;-80
2022/03/18 05:54:39;;;;;;;12.73;2.55;;;9.30;86.30;;;;;;6229643;28;20058;-80
2022/03/18 05:57:43;;;;;;;11.18;2.70;;;9.30;87.00;;;;;;6228743;28;20050;-80
2022/03/18 06:00:44;;;;;;;7.22;2.90;;;9.40;87.30;;;;;;6229050;28;20575;-80
2022/03/18 06:03:46;;;;;;;11.98;4.43;;;9.40;85.30;;;;;;6229170;28;20136;-80
2022/03/18 06:06:48;;;;;;;10.38;3.22;;;9.30;86.20;;;;;;6229527;28;20052;-81
2022/03/18 06:13:11;;;;;;;7.80;2.58;;;9.20;87.90;;;;;;6228110;28;20045;-81
2022/03/18 06:16:12;;;;;;;11.50;3.53;;;9.40;87.20;;;;;;6228455;28;20056;-81
2022/03/18 06:19:15;;;;;;;11.88;3.97;;;9.40;87.80;;;;;;6228502;28;20065;-81
2022/03/18 06:22:17;;;;;;;10.63;3.65;;;9.40;87.00;;;;;;6229878;28;20056;-81
2022/03/18 06:25:19;;;;;;;11.52;2.75;;;9.40;86.10;;;;;;6228952;28;20132;-81
2022/03/18 06:28:22;;;;;;;12.70;3.75;;;9.40;85.60;;;;;;6229802;28;20184;-81
2022/03/18 06:31:23;;;;;;;16.98;4.15;;;9.30;85.30;;;;;;6229716;28;20491;-80
2022/03/18 06:34:25;;;;;;;18.63;5.18;;;9.30;86.10;;;;;;6228503;28;20136;-80
2022/03/18 06:37:27;;;;;;;9.23;4.75;;;9.40;88.00;;;;;;6228495;28;20124;-81
2022/03/18 06:40:29;;;;;;;13.52;4.57;;;9.50;87.70;;;;;;6228831;28;20042;-83
2022/03/18 06:43:32;;;;;;;12.85;3.55;;;9.60;86.80;;;;;;6230222;28;20228;-81
2022/03/18 06:46:34;;;;;;;17.83;4.20;;;9.60;86.70;;;;;;6229645;28;20136;-80
2022/03/18 06:49:35;;;;;;;9.05;3.45;;;9.70;86.60;;;;;;6229967;28;20045;-80
2022/03/18 06:52:37;;;;;;;7.45;3.30;;;9.80;85.50;;;;;;6229224;28;20054;-81
2022/03/18 06:55:39;;;;;;;14.20;4.30;;;9.90;87.60;;;;;;6228827;28;20053;-80
2022/03/18 06:58:43;;;;;;;8.57;3.40;;;10.00;86.30;;;;;;6230217;28;20052;-81
2022/03/18 07:01:46;;;;;;;13.07;4.05;;;10.10;88.20;;;;;;6229100;28;20515;-81
2022/03/18 07:04:47;;;;;;;7.22;2.85;;;10.20;87.50;;;;;;6229685;28;20092;-81
2022/03/18 07:07:49;;;;;;;14.63;5.07;;;10.30;85.30;;;;;;6228505;28;20058;-82
2022/03/18 07:10:51;;;;;;;13.52;3.17;;;10.40;85.90;;;;;;6230058;28;20042;-82
2022/03/18 07:13:54;;;;;;;15.10;4.03;;;10.30;83.80;;;;;;6228170;28;20060;-82
2022/03/18 07:20:15;;;;;;;11.75;3.67;;;10.50;85.10;;;;;;6231407;28;20049;-81
2022/03/18 07:23:19;;;;;;;14.00;3.75;;;10.50;84.10;;;;;;6229809;28;20045;-81
2022/03/18 07:26:21;;;;;;;12.70;4.40;;;10.50;85.40;;;;;;6232701;28;20057;-80
2022/03/18 07:29:24;;;;;;;17.45;4.28;;;10.50;83.90;;;;;;6229678;28;20411;-81
2022/03/18 07:32:26;;;;;;;10.93;3.35;;;10.50;83.80;;;;;;6229917;28;20133;-81
2022/03/18 07:35:28;;;;;;;6.40;3.22;;;10.50;83.30;;;;;;6232993;28;20093;-81
2022/03/18 07:38:30;;;;;;;10.68;3.95;;;10.60;82.90;;;;;;6230166;28;20085;-81
2022/03/18 07:44:38;;;;;;;10.90;3.30;;;10.60;81.50;;;;;;6170927;28;20046;-83
2022/03/18 07:47:40;;;;;;;10.95;3.47;;;10.60;81.80;;;;;;6200341;28;20550;-82
2022/03/18 07:50:42;;;;;;;11.10;4.57;;;10.60;81.70;;;;;;6201097;28;20096;-83
2022/03/18 07:53:44;;;;;;;13.07;4.80;;;10.60;81.50;;;;;;6183550;28;20054;-83
2022/03/18 07:56:46;;;;;;;13.90;4.15;;;10.60;83.60;;;;;;6177678;28;20043;-83
2022/03/18 07:59:49;;;;;;;24.42;5.18;;;10.60;81.70;;;;;;6178141;28;20086;-81
2022/03/18 08:02:52;;;;;;;14.82;3.78;;;10.50;82.00;;;;;;6177503;28;20082;-81
2022/03/18 08:05:54;;;;;;;14.77;3.97;;;10.60;82.00;;;;;;6177918;28;20130;-83
2022/03/18 08:08:56;;;;;;;11.95;3.30;;;10.60;81.60;;;;;;6177290;28;20512;-81
2022/03/18 08:11:58;;;;;;;12.10;3.90;;;10.50;81.80;;;;;;6178451;28;20047;-80
2022/03/18 08:15:04;;;;;;;12.80;4.10;;;10.50;81.80;;;;;;6179265;28;20063;-81
2022/03/18 08:18:09;;;;;;;9.43;4.32;;;10.50;81.40;;;;;;6178367;28;20121;-81
2022/03/18 08:21:16;;;;;;;13.60;4.45;;;10.50;81.20;;;;;;6178658;28;20051;-81
2022/03/18 08:24:19;;;;;;;13.73;3.80;;;10.50;81.80;;;;;;6178719;28;20102;-81
2022/03/18 08:27:21;;;;;;;14.20;3.95;;;10.50;81.80;;;;;;6179119;28;20185;-81
2022/03/18 08:30:24;;;;;;;10.32;4.10;;;10.60;83.30;;;;;;6177514;28;20116;-81
2022/03/18 08:33:27;;;;;;;12.82;3.47;;;10.80;85.20;;;;;;6233175;22;20232;-81
2022/03/18 08:36:29;;;;;;;8.45;4.03;;;10.90;84.10;;;;;;6231915;28;20045;-81
2022/03/18 08:39:31;;;;;;;12.38;4.05;;;10.90;81.40;;;;;;6230679;28;20056;-81
2022/03/18 08:42:33;;;;;;;10.52;3.70;;;10.90;80.60;;;;;;6232001;28;20054;-80
2022/03/18 08:45:37;;;;;;;7.65;2.95;;;10.80;82.50;;;;;;6232267;28;20569;-80
2022/03/18 08:48:39;;;;;;;6.80;3.60;;;10.90;80.80;;;;;;6233333;28;20119;-80
2022/03/18 08:51:41;;;;;;;12.65;4.22;;;11.00;80.90;;;;;;6232622;28;20518;-80
2022/03/18 08:54:43;;;;;;;11.82;4.88;;;11.00;80.90;;;;;;6232360;28;20060;-80
2022/03/18 08:57:45;;;;;;;8.15;3.45;;;11.00;82.10;;;;;;6232409;28;20129;-81
2022/03/18 09:00:48;;;;;;;25.77;4.50;;;11.10;81.90;;;;;;6232035;28;20046;-81
2022/03/18 09:03:49;;;;;;;12.45;4.20;;;11.20;81.40;;;;;;6232618;28;20527;-80
2022/03/18 09:06:51;;;;;;;10.15;4.45;;;11.20;80.30;;;;;;6231437;28;20387;-80
2022/03/18 09:09:53;;;;;;;8.68;4.45;;;11.30;81.40;;;;;;6231348;28;20046;-81
2022/03/18 09:12:58;;;;;;;8.98;3.92;;;11.30;80.60;;;;;;6230923;28;20499;-81
2022/03/18 09:16:01;;;;;;;11.40;3.35;;;11.40;80.70;;;;;;6232686;28;20415;-81
2022/03/18 09:19:03;;;;;;;21.38;5.18;;;11.50;81.30;;;;;;6232020;28;20053;-81
2022/03/18 09:22:06;;;;;;;9.02;4.38;;;11.70;79.70;;;;;;6232384;28;20069;-80
2022/03/18 09:25:08;;;;;;;11.13;4.85;;;11.60;80.50;;;;;;6239041;28;20412;-81
2022/03/18 09:28:10;;;;;;;10.60;4.32;;;11.80;80.50;;;;;;6238075;28;20057;-81
2022/03/18 09:31:13;;;;;;;13.93;5.38;;;12.00;80.60;;;;;;6237340;28;20046;-81
2022/03/18 09:34:15;;;;;;;10.90;4.50;;;12.20;78.40;;;;;;6235774;28;20053;-81
2022/03/18 09:37:17;;;;;;;11.95;4.60;;;12.30;78.20;;;;;;6236048;28;20112;-81
2022/03/18 09:40:18;;;;;;;11.93;5.07;;;12.50;77.90;;;;;;6236332;28;20120;-81
2022/03/18 09:43:20;;;;;;;9.82;4.45;;;12.50;78.40;;;;;;6236067;28;20390;-80
2022/03/18 09:46:24;;;;;;;12.82;5.20;;;12.70;78.00;;;;;;6234965;28;20100;-81
2022/03/18 09:49:26;;;;;;;8.55;3.60;;;12.80;76.50;;;;;;6234912;28;20427;-80
2022/03/18 09:52:27;;;;;;;10.60;4.43;;;12.90;77.00;;;;;;6233824;28;20105;-81
2022/03/18 09:55:30;;;;;;;12.55;4.82;;;12.80;74.60;;;;;;6234063;28;20053;-80
2022/03/18 09:58:32;;;;;;;16.20;5.82;;;12.60;75.30;;;;;;6233036;28;20053;-81
2022/03/18 10:01:35;;;;;;;12.70;4.47;;;12.60;77.70;;;;;;6231233;28;20128;-81
2022/03/18 10:04:52;;;;;;;10.32;4.85;;;12.70;76.70;;;;;;6225232;28;20054;-81
2022/03/18 10:07:56;;;;;;;17.13;6.15;;;12.70;76.30;;;;;;6251187;28;20045;-81
2022/03/18 10:10:58;;;;;;;16.50;5.85;;;12.80;77.10;;;;;;6227946;28;20123;-79
2022/03/18 10:14:01;;;;;;;14.23;6.22;;;13.00;75.60;;;;;;6223878;28;20046;-79
2022/03/18 10:17:09;;;;;;;19.95;8.07;;;12.90;74.80;;;;;;6224057;28;20191;-80
2022/03/18 10:20:33;;;;;;;13.30;6.75;;;13.00;74.40;;;;;;6227129;28;20045;-82
2022/03/18 10:23:35;;;;;;;17.48;7.03;;;13.10;73.30;;;;;;6225670;28;20061;-83
2022/03/18 10:26:38;;;;;;;20.00;8.93;;;13.00;73.20;;;;;;6227177;28;20058;-81
2022/03/18 10:29:42;;;;;;;20.70;8.43;;;13.00;73.80;;;;;;6213604;28;20046;-82
2022/03/18 10:32:49;;;;;;;18.83;8.88;;;13.20;73.70;;;;;;6204248;28;20049;-82
2022/03/18 10:39:22;;;;;;;17.42;9.20;;;13.20;71.60;;;;;;6250151;28;20045;-79
2022/03/18 10:42:24;;;;;;;16.73;8.35;;;13.00;72.30;;;;;;6251579;28;20073;-80
2022/03/18 10:45:26;;;;;;;20.65;8.05;;;13.00;72.60;;;;;;6250900;28;20136;-80
2022/03/18 10:48:29;;;;;;;18.92;8.88;;;13.20;72.20;;;;;;6251310;28;20349;-81
2022/03/18 10:51:31;;;;;;;16.88;8.75;;;13.30;71.50;;;;;;6252687;28;20152;-82
2022/03/18 10:54:34;;;;;;;15.65;8.77;;;13.50;71.50;;;;;;6253529;28;20056;-80
2022/03/18 10:57:37;;;;;;;27.25;11.52;;;13.60;70.80;;;;;;6254821;28;20042;-82
2022/03/18 11:00:43;;;;;;;20.73;10.20;;;13.70;69.50;;;;;;6253643;28;20041;-82
2022/03/18 11:03:47;;;;;;;22.75;12.18;;;14.00;70.80;;;;;;6249827;28;20049;-81
2022/03/18 11:13:29;;;;;;;27.65;11.90;;;14.70;66.30;;;;;;6253845;28;20491;-82
2022/03/18 11:16:34;;;;;;;20.73;10.32;;;14.90;66.60;;;;;;6253064;28;20056;-80
2022/03/18 11:19:38;;;;;;;28.15;11.65;;;15.20;64.80;;;;;;6252480;28;20050;-81
2022/03/18 11:22:41;;;;;;;21.10;12.43;;;15.10;64.90;;;;;;6253251;28;20127;-81
2022/03/18 11:25:44;;;;;;;27.90;11.57;;;15.00;65.60;;;;;;6252464;28;20442;-81
2022/03/18 11:28:46;;;;;;;31.13;15.02;;;14.80;64.90;;;;;;6252663;28;20041;-80
2022/03/18 11:32:20;;;;;;;19.80;11.15;;;14.80;64.90;;;;;;6255067;28;20045;-82
2022/03/18 11:35:24;;;;;;;23.90;11.57;;;14.60;65.00;;;;;;6245037;28;20053;-80
2022/03/18 11:38:30;;;;;;;19.27;10.68;;;14.40;65.80;;;;;;6254254;28;20061;-81
2022/03/18 11:41:53;;;;;;;23.38;12.85;;;14.20;66.10;;;;;;6258024;28;20048;-81
2022/03/18 11:44:58;;;;;;;19.60;10.70;;;14.00;67.30;;;;;;6256821;28;20060;-81
2022/03/18 11:48:00;;;;;;;21.40;11.75;;;14.10;67.10;;;;;;6256082;28;20543;-79
2022/03/18 11:51:23;;;;;;;29.55;11.75;;;14.30;67.40;;;;;;6256908;28;20105;-80
2022/03/18 11:54:27;;;;;;;27.25;11.55;;;14.40;66.80;;;;;;6253372;28;20132;-80
2022/03/18 11:57:31;;;;;;;21.33;10.95;;;14.50;66.40;;;;;;6252838;28;20084;-81
2022/03/18 12:00:43;;;;;;;20.50;11.35;;;14.70;66.20;;;;;;6249651;28;20503;-78
2022/03/18 12:03:45;;;;;;;19.95;9.85;;;14.80;65.40;;;;;;6244999;28;20058;-79
2022/03/18 12:07:14;;;;;;;23.33;11.15;;;14.70;65.20;;;;;;6245027;28;20054;-80
2022/03/18 12:10:31;;;;;;;23.83;11.25;;;14.60;65.40;;;;;;6247941;28;20148;-80
2022/03/18 12:13:34;;;;;;;21.27;9.90;;;14.60;65.60;;;;;;6248378;28;20053;-79
2022/03/18 12:16:35;;;;;;;21.33;11.27;;;14.80;64.80;;;;;;6252563;28;20097;-79
2022/03/18 12:19:37;;;;;;;23.73;9.88;;;14.60;64.90;;;;;;6257376;28;20142;-80
2022/03/18 12:22:43;;;;;;;20.15;10.23;;;14.50;65.30;;;;;;6258226;28;20045;-80
2022/03/18 12:25:44;;;;;;;19.90;10.32;;;14.50;65.30;;;;;;6257848;28;20102;-80
2022/03/18 12:28:48;;;;;;;21.83;11.18;;;14.50;65.90;;;;;;6258341;28;20053;-81
2022/03/18 12:31:49;;;;;;;23.13;9.70;;;14.70;65.30;;;;;;6260696;28;20061;-81
2022/03/18 12:34:54;;;;;;;21.90;9.93;;;14.80;64.10;;;;;;6257664;28;20085;-79
2022/03/18 12:38:08;;;;;;;19.05;9.13;;;14.80;64.00;;;;;;6257851;28;20049;-79
2022/03/18 12:41:12;;;;;;;27.73;11.23;;;14.80;63.80;;;;;;6260186;28;20510;-79
2022/03/18 12:44:13;;;;;;;15.65;7.45;;;14.90;64.30;;;;;;6254085;28;20224;-79
2022/03/18 12:47:16;;;;;;;20.50;9.20;;;15.10;63.70;;;;;;6258493;28;20049;-81
2022/03/18 12:50:18;;;;;;;18.65;9.20;;;15.00;62.90;;;;;;6258599;28;20049;-81
2022/03/18 12:53:23;;;;;;;21.33;11.77;;;14.90;62.60;;;;;;6259966;28;20132;-81
2022/03/18 12:56:29;;;;;;;21.17;9.68;;;14.60;63.20;;;;;;6259026;28;20041;-80
2022/03/18 12:59:31;;;;;;;21.08;9.18;;;14.60;63.90;;;;;;6256561;28;20137;-80
2022/03/18 13:02:35;;;;;;;19.25;9.73;;;14.70;64.20;;;;;;6257780;28;20045;-81
2022/03/18 13:05:38;;;;;;;19.35;10.55;;;14.70;63.40;;;;;;6256023;28;20049;-81
2022/03/18 13:08:41;;;;;;;23.25;11.25;;;14.80;63.50;;;;;;6236674;28;20092;-80
2022/03/18 13:11:43;;;;;;;17.63;7.60;;;14.80;62.90;;;;;;6236223;28;20065;-79
2022/03/18 13:14:45;;;;;;;17.27;8.68;;;14.80;63.60;;;;;;6232625;28;20050;-81
2022/03/18 13:17:49;;;;;;;17.52;9.98;;;14.90;63.60;;;;;;6231851;28;20050;-80
2022/03/18 13:20:56;;;;;;;19.77;10.10;;;14.90;63.30;;;;;;6231482;28;20060;-81
2022/03/18 13:24:00;;;;;;;18.42;9.05;;;14.90;63.40;;;;;;6232737;28;20049;-78
2022/03/18 13:27:02;;;;;;;16.77;8.32;;;15.00;63.00;;;;;;6227825;28;20482;-79
2022/03/18 13:33:25;;;;;;;21.15;10.50;;;15.00;62.90;;;;;;6239411;28;20050;-81
2022/03/18 13:36:29;;;;;;;22.88;10.23;;;15.10;62.90;;;;;;6260402;28;20046;-81
2022/03/18 13:39:32;;;;;;;16.67;8.88;;;15.10;62.10;;;;;;6257170;28;20140;-80
2022/03/18 13:42:34;;;;;;;19.20;9.35;;;14.90;61.90;;;;;;6255200;28;20049;-80
2022/03/18 13:45:37;;;;;;;17.08;8.73;;;14.60;62.80;;;;;;6253643;28;20485;-82
2022/03/18 13:48:40;;;;;;;15.00;6.97;;;14.60;63.30;;;;;;6254112;28;20049;-79
2022/03/18 13:51:48;;;;;;;21.17;9.68;;;14.40;62.50;;;;;;6256561;28;20152;-81
2022/03/18 13:54:53;;;;;;;15.02;8.70;;;14.40;63.70;;;;;;6258773;28;20049;-80
2022/03/18 13:57:55;;;;;;;19.75;9.00;;;14.60;63.50;;;;;;6257837;28;20277;-81
2022/03/18 14:01:08;;;;;;;16.90;7.43;;;14.70;63.00;;;;;;6262885;28;20285;-81
2022/03/18 14:04:10;;;;;;;21.25;9.95;;;14.80;62.80;;;;;;6255521;28;20046;-80
2022/03/18 14:07:14;;;;;;;21.77;9.65;;;14.80;62.70;;;;;;6238881;28;20073;-81
2022/03/18 14:10:19;;;;;;;14.95;7.85;;;14.70;61.90;;;;;;6231481;28;20129;-82
2022/03/18 14:13:28;;;;;;;19.70;10.20;;;14.60;62.60;;;;;;6256933;28;20049;-81
2022/03/18 14:16:29;;;;;;;18.83;9.63;;;14.60;62.70;;;;;;6259873;28;20041;-80
2022/03/18 14:19:48;;;;;;;19.08;9.10;;;14.70;62.60;;;;;;6259675;28;20049;-80
2022/03/18 14:22:53;;;;;;;15.27;9.38;;;14.90;62.30;;;;;;6260061;28;20069;-81
2022/03/18 14:25:57;;;;;;;15.30;8.90;;;14.90;61.50;;;;;;6258208;28;20041;-81
2022/03/18 14:28:59;;;;;;;18.95;10.55;;;14.80;61.10;;;;;;6259257;28;20049;-81
2022/03/18 14:32:02;;;;;;;16.90;9.50;;;14.70;62.40;;;;;;6260212;28;20046;-81
2022/03/18 14:35:05;;;;;;;17.13;8.95;;;14.70;61.70;;;;;;6256671;28;20064;-81
2022/03/18 14:38:07;;;;;;;21.30;9.63;;;14.60;62.10;;;;;;6253403;28;20414;-81
2022/03/18 14:41:12;;;;;;;23.70;10.25;;;14.70;62.50;;;;;;6253987;28;20113;-82
2022/03/18 14:44:15;;;;;;;19.67;10.18;;;14.80;62.70;;;;;;6254063;28;20438;-81
2022/03/18 14:47:17;;;;;;;17.05;9.15;;;14.80;62.20;;;;;;6254223;28;20168;-82
2022/03/18 14:50:18;;;;;;;18.77;9.60;;;14.80;62.30;;;;;;6254757;28;20101;-82
2022/03/18 14:53:20;;;;;;;15.82;9.27;;;14.90;62.70;;;;;;6254625;28;20515;-80
2022/03/18 14:56:26;;;;;;;19.80;9.27;;;15.00;62.30;;;;;;6254011;28;20049;-82
2022/03/18 14:59:29;;;;;;;15.00;9.00;;;15.10;62.50;;;;;;6256976;28;20053;-82
2022/03/18 15:02:31;;;;;;;16.20;7.70;;;15.10;62.20;;;;;;6254833;28;20494;-81
2022/03/18 15:05:33;;;;;;;15.15;9.35;;;15.20;62.20;;;;;;6261402;28;20049;-81
2022/03/18 15:08:35;;;;;;;17.73;9.20;;;15.20;61.90;;;;;;6235647;28;20042;-81
2022/03/18 15:11:38;;;;;;;21.55;9.13;;;15.20;61.90;;;;;;6230912;28;20129;-82
2022/03/18 15:14:40;;;;;;;18.65;9.50;;;15.00;62.20;;;;;;6228978;28;20466;-82
2022/03/18 15:17:42;;;;;;;16.67;8.25;;;14.90;62.60;;;;;;6229516;28;20050;-82
2022/03/18 15:20:44;;;;;;;19.42;9.25;;;14.80;62.80;;;;;;6230416;28;20072;-82
2022/03/18 15:23:47;;;;;;;14.98;8.20;;;14.70;63.20;;;;;;6228922;28;20211;-82
2022/03/18 15:26:50;;;;;;;17.27;10.27;;;14.60;63.50;;;;;;6228848;28;20065;-81
2022/03/18 15:29:52;;;;;;;16.85;9.65;;;14.50;63.80;;;;;;6229106;28;20052;-81
2022/03/18 15:32:54;;;;;;;20.15;10.70;;;14.40;63.80;;;;;;6227838;28;20050;-81
2022/03/18 15:35:57;;;;;;;23.15;10.93;;;14.20;64.10;;;;;;6251901;28;20076;-81
2022/03/18 15:38:59;;;;;;;17.88;8.90;;;14.10;64.70;;;;;;6254312;28;20052;-81
2022/03/18 15:42:02;;;;;;;14.30;7.72;;;14.10;65.00;;;;;;6252391;28;20058;-81
2022/03/18 15:45:05;;;;;;;13.50;8.27;;;14.10;65.10;;;;;;6252565;28;20067;-80
2022/03/18 15:48:07;;;;;;;18.55;9.73;;;14.10;64.60;;;;;;6250991;28;20120;-81
2022/03/18 15:51:09;;;;;;;19.05;9.27;;;14.10;64.30;;;;;;6252876;28;20050;-81
2022/03/18 15:54:13;;;;;;;18.85;10.93;;;14.10;64.80;;;;;;6253035;28;20560;-81
2022/03/18 15:57:16;;;;;;;18.35;10.27;;;14.10;65.20;;;;;;6252773;28;20507;-81
2022/03/18 16:00:18;;;;;;;23.23;12.80;;;14.20;64.70;;;;;;6247142;28;20129;-82
2022/03/18 16:03:19;;;;;;;18.70;9.57;;;14.10;64.40;;;;;;6226450;28;20049;-81
2022/03/18 16:06:21;;;;;;;13.85;8.48;;;14.20;64.80;;;;;;6238203;28;20050;-82
2022/03/18 16:09:23;;;;;;;19.40;9.88;;;14.00;64.90;;;;;;6217819;28;20050;-80
2022/03/18 16:12:26;;;;;;;16.23;10.48;;;13.80;65.30;;;;;;6227267;28;20042;-82
2022/03/18 16:15:29;;;;;;;14.27;7.97;;;13.70;65.80;;;;;;6227434;28;20061;-82
2022/03/18 16:18:31;;;;;;;15.40;8.95;;;13.60;65.60;;;;;;6228098;28;20061;-81
2022/03/18 16:21:32;;;;;;;18.35;8.77;;;13.70;65.90;;;;;;6250837;28;20041;-81